Stations météo

réclame
Mon MeteoGroup
Feldberg/Schwarzwald, Allemagne (10908): Température de l'air & dewpoint: 20.05.2018 23:00:00 - 26.05.2018 23:00:00 (CEST)Feldberg/Schwarzwald, Allemagne (10908): Température de l'air 5cm & Température de l'air -5cm: 20.05.2018 23:00:00 - 26.05.2018 23:00:00 (CEST)Feldberg/Schwarzwald, Allemagne (10908): Température de l'air -20cm & Température de l'air -100cm: 20.05.2018 23:00:00 - 26.05.2018 23:00:00 (CEST)Feldberg/Schwarzwald, Allemagne (10908): Vitesse du vent & gusts: 20.05.2018 23:00:00 - 26.05.2018 23:00:00 (CEST)Feldberg/Schwarzwald, Allemagne (10908): Direction du vent: 20.05.2018 23:00:00 - 26.05.2018 23:00:00 (CEST)Feldberg/Schwarzwald, Allemagne (10908): Ensoleillement: 20.05.2018 23:00:00 - 26.05.2018 23:00:00 (CEST)Feldberg/Schwarzwald, Allemagne (10908): Quantités de précipitations: 20.05.2018 23:00:00 - 26.05.2018 23:00:00 (CEST)
Date & Time tt [°C] td [°C] tt 5cm [°C] tt -5cm [°C] tt -20cm [°C] tt -100cm [°C] ff [km/h] ff [knt] fx [km/h] fx [knt] dd sd [min] rr [mm]
26.05.2018 23:00:00 - - - - - - - - - - - - -
26.05.2018 22:00:00 14,8 10,5 13,1 15,4 13,9 6,2 22 12 27 14 E 0 0,0
26.05.2018 21:00:00 15,3 10,1 13,9 16,7 13,8 6,1 16 9 19 11 ENE 1 0,0
26.05.2018 20:00:00 15,4 10,9 16,3 17,8 13,7 6,1 12 7 20 11 NNE 33 0,0
26.05.2018 19:00:00 15,7 10,2 16,2 19,2 13,5 6,1 16 9 23 13 N 54 0,0
26.05.2018 18:00:00 15,9 9,6 16,0 20,4 13,1 6,1 17 9 29 15 N 28 0,0
26.05.2018 17:00:00 16,6 10,9 18,8 20,8 12,8 6,1 19 10 29 15 N 43 0,0
26.05.2018 16:00:00 16,3 10,2 19,2 21,0 12,4 6,1 18 10 25 13 NNE 45 0,0
26.05.2018 15:00:00 16,1 12,7 20,0 19,3 12,0 6,1 8 4 22 12 N 11 0,0
26.05.2018 14:00:00 17,4 10,0 19,8 20,4 11,5 6,1 12 6 19 10 N 12 0,0
26.05.2018 13:00:00 18,3 8,8 20,7 21,0 11,0 6,1 8 4 45 24 NNW 53 0,0
26.05.2018 12:00:00 16,9 6,1 21,2 18,5 10,7 6,1 9 5 24 13 S 60 0,0
26.05.2018 11:00:00 16,3 8,2 21,0 15,8 10,6 6,1 16 8 26 14 E 60 0,0
26.05.2018 10:00:00 15,1 8,5 17,5 13,3 10,6 6,0 19 10 26 14 E 60 0,0
26.05.2018 09:00:00 14,3 7,4 15,6 11,3 10,7 6,0 24 13 31 17 ESE 60 0,0
26.05.2018 08:00:00 13,9 6,9 13,0 9,6 10,9 6,0 18 10 25 14 ESE 57 0,0
26.05.2018 07:00:00 13,2 6,7 9,8 8,6 11,1 6,0 19 11 24 13 ESE 3 0,0
26.05.2018 06:00:00 14,1 4,5 7,7 8,8 11,3 6,0 2 1 16 9 E 0 0,0
26.05.2018 05:00:00 14,1 5,1 8,5 9,2 11,5 6,0 6 3 13 7 SE 0 0,0
26.05.2018 04:00:00 14,5 4,2 9,1 9,7 11,7 6,0 10 6 25 13 SSE 0 0,0
26.05.2018 03:00:00 13,7 6,8 9,0 10,2 12,0 6,0 19 10 34 18 ESE 0 0,0
26.05.2018 02:00:00 12,7 7,6 9,9 10,7 12,2 6,0 30 16 47 25 ESE 0 0,0
26.05.2018 01:00:00 12,4 8,0 10,0 11,1 12,4 6,0 36 19 44 24 ESE 0 0,0
26.05.2018 00:00:00 12,6 8,1 10,0 11,7 12,6 6,0 32 17 39 21 E 0 0,0
25.05.2018 23:00:00 12,8 8,6 10,4 12,5 12,7 5,9 31 17 40 22 E 0 0,0
25.05.2018 22:00:00 13,2 8,7 10,8 13,7 12,7 5,9 28 15 35 19 E 0 0,0
25.05.2018 21:00:00 13,9 8,9 11,7 15,4 12,6 5,9 19 10 23 13 ENE 48 0,0
25.05.2018 20:00:00 15,0 7,4 14,7 16,8 12,4 5,9 10 6 23 12 E 60 0,0
25.05.2018 19:00:00 15,3 6,7 16,6 18,3 12,2 5,9 11 6 18 10 E 51 0,0
25.05.2018 18:00:00 15,9 8,3 20,7 18,0 11,9 5,9 5 3 14 8 E 19 0,0
25.05.2018 17:00:00 15,7 8,6 16,7 18,2 11,7 5,9 6 4 13 7 WNW 16 0,0
25.05.2018 16:00:00 14,6 7,9 17,4 17,5 11,4 5,9 8 5 18 10 E 13 0,0
25.05.2018 15:00:00 13,5 8,0 16,5 16,5 11,1 5,9 15 8 22 12 E 1 0,0
25.05.2018 14:00:00 13,7 8,2 15,5 17,4 10,8 5,9 11 6 22 12 N 35 0,0
25.05.2018 13:00:00 13,5 8,3 18,3 15,2 10,6 5,9 12 7 25 14 N 13 0,0
25.05.2018 12:00:00 12,5 8,6 14,5 15,3 10,3 5,9 11 6 18 10 N 12 0,0
25.05.2018 11:00:00 12,4 7,9 13,6 15,6 10,1 5,9 11 6 19 10 N 35 0,0
25.05.2018 10:00:00 13,0 7,1 16,3 13,3 10,1 5,8 8 4 16 8 NNW 60 0,0
25.05.2018 09:00:00 11,9 3,5 13,7 10,6 10,3 5,8 11 6 16 9 S 60 0,0
25.05.2018 08:00:00 11,3 4,2 11,1 8,6 10,5 5,8 10 6 14 8 SSW 60 0,0
25.05.2018 07:00:00 10,8 5,0 7,7 7,7 10,7 5,8 9 5 11 6 SW 48 0,0
25.05.2018 06:00:00 10,3 7,4 6,2 7,9 11,0 5,8 11 6 18 10 W 0 0,0
25.05.2018 05:00:00 10,5 6,8 6,7 8,3 11,3 5,8 16 9 18 10 WSW 0 0,0
25.05.2018 04:00:00 10,5 7,0 6,8 8,8 11,6 5,8 18 10 24 13 WSW 0 0,0
25.05.2018 03:00:00 10,5 7,3 7,3 9,3 11,8 5,8 19 10 24 13 WSW 0 0,0
25.05.2018 02:00:00 10,8 7,6 7,6 9,8 12,1 5,8 20 11 22 12 WSW 0 0,0
25.05.2018 01:00:00 10,7 8,2 7,4 10,4 12,4 5,8 16 9 18 10 SSW 0 0,0
25.05.2018 00:00:00 10,7 8,4 7,6 11,2 12,6 5,8 14 8 19 10 SSW 0 0,0
24.05.2018 23:00:00 11,0 7,0 8,1 12,5 12,8 5,7 19 10 22 12 SSW 0 0,0
24.05.2018 22:00:00 11,5 7,3 9,5 13,9 12,8 5,7 20 11 23 13 SSW 0 0,0
24.05.2018 21:00:00 12,0 7,8 11,9 15,2 12,8 5,7 13 7 18 10 SW 21 0,0
24.05.2018 20:00:00 12,4 8,4 12,7 16,5 12,7 5,7 10 5 27 15 SSW 7 0,0
24.05.2018 19:00:00 13,0 8,5 13,9 17,5 12,5 5,7 11 6 25 13 W 13 0,0
24.05.2018 18:00:00 12,6 8,5 13,8 18,9 12,2 5,7 12 6 22 12 W 16 0,0
24.05.2018 17:00:00 12,7 8,7 14,1 20,7 11,7 5,7 14 8 33 18 W 40 0,0
24.05.2018 16:00:00 13,0 5,8 18,1 20,9 11,2 5,7 22 12 37 20 SSW 59 0,0
24.05.2018 15:00:00 12,7 7,3 18,5 20,6 10,6 5,7 19 11 37 20 S 54 0,0
24.05.2018 14:00:00 12,1 6,5 18,4 20,3 10,1 5,7 23 12 35 19 S 60 0,0
24.05.2018 13:00:00 11,8 6,7 18,4 19,2 9,7 5,7 16 9 26 14 SSW 58 0,0
24.05.2018 12:00:00 11,5 7,6 19,3 16,4 9,5 5,7 13 7 22 12 S 56 0,0
24.05.2018 11:00:00 10,7 9,4 15,2 12,5 9,4 5,7 8 4 12 7 S 2 0,0
24.05.2018 10:00:00 9,6 6,7 11,7 10,4 9,4 5,7 10 6 18 10 SW 0 0,0
24.05.2018 09:00:00 9,3 7,0 9,9 9,5 9,5 5,7 14 8 21 11 WSW 0 0,0
24.05.2018 08:00:00 9,6 6,7 9,3 8,9 9,7 5,6 22 12 25 14 SW 8 0,0
24.05.2018 07:00:00 9,0 7,1 8,4 8,4 9,8 5,6 19 11 23 12 SSW 2 0,0
24.05.2018 06:00:00 9,0 6,8 6,9 8,5 10,0 5,6 18 10 20 11 SW 0 0,0
24.05.2018 05:00:00 9,1 5,5 6,9 8,9 10,1 5,6 11 6 15 8 SSW 0 0,0
24.05.2018 04:00:00 10,0 4,7 7,2 9,2 10,3 5,6 10 6 24 13 S 0 3,1
24.05.2018 03:00:00 9,0 6,0 8,2 9,6 10,4 5,6 18 10 33 18 SSW 0 4,6
24.05.2018 02:00:00 8,3 6,3 7,7 10,1 10,5 5,6 26 14 38 20 S 0 18,0
24.05.2018 01:00:00 9,9 9,6 9,9 10,7 10,6 5,6 19 11 29 16 ENE 0 0,0
24.05.2018 00:00:00 10,1 9,9 9,7 10,8 10,7 5,6 20 11 29 15 E 0 0,0
23.05.2018 23:00:00 10,2 9,9 9,4 11,2 10,7 5,6 24 13 27 15 ENE 0 0,0
23.05.2018 22:00:00 10,2 8,9 9,5 11,8 10,7 5,6 15 8 20 11 ENE 0 0,0
23.05.2018 21:00:00 10,1 8,9 9,3 12,8 10,6 5,6 10 6 16 8 NE 1 0,0
23.05.2018 20:00:00 9,8 9,3 10,5 14,0 10,5 5,6 9 5 18 10 NE 3 0,0
23.05.2018 19:00:00 10,8 10,5 11,9 14,5 10,2 5,6 9 5 18 10 N 0 0,0
23.05.2018 18:00:00 11,1 9,4 11,9 15,4 9,9 5,6 6 3 17 9 NNE 3 0,0
23.05.2018 17:00:00 12,0 9,4 18,3 15,7 9,6 5,6 6 4 17 9 NE 25 0,0
23.05.2018 16:00:00 11,4 9,7 15,5 14,7 9,4 5,6 10 5 18 10 NE 0 0,0
23.05.2018 15:00:00 9,8 8,9 13,3 12,9 9,3 5,6 9 5 20 11 E 1 0,0
23.05.2018 14:00:00 9,3 6,5 11,7 11,2 9,2 5,6 9 5 16 9 ENE 0 0,5
23.05.2018 13:00:00 8,8 5,4 8,4 10,4 9,1 5,5 7 4 23 12 NNE 0 6,0
23.05.2018 12:00:00 8,8 8,3 9,1 11,0 9,0 5,5 9 5 12 7 SW 0 6,2
23.05.2018 11:00:00 9,9 7,8 10,6 11,4 9,0 5,5 6 3 11 6 W 0 0,0
23.05.2018 10:00:00 10,2 7,6 12,8 10,3 9,0 5,5 6 3 9 5 NE 0 0,0
23.05.2018 09:00:00 10,3 7,6 10,7 8,8 9,1 5,5 3 2 6 3 NW 0 0,0
23.05.2018 08:00:00 9,3 6,0 8,3 7,8 9,3 5,5 4 2 9 5 SW 0 0,0
23.05.2018 07:00:00 8,9 6,2 7,5 7,3 9,5 5,5 9 5 12 6 SW 0 0,0
23.05.2018 06:00:00 8,8 6,2 5,8 7,4 9,7 5,5 8 4 14 8 SW 0 0,0
23.05.2018 05:00:00 8,4 6,4 5,1 7,6 9,9 5,5 11 6 16 9 SW 0 0,0
23.05.2018 04:00:00 8,2 6,6 5,9 8,2 10,1 5,5 11 6 16 9 SSW 0 0,0
23.05.2018 03:00:00 7,9 7,2 6,5 8,9 10,2 5,5 14 8 22 12 S 0 0,0
23.05.2018 02:00:00 7,7 7,5 7,2 9,5 10,4 5,5 19 10 22 12 S 0 0,0
23.05.2018 01:00:00 8,1 7,8 7,9 9,9 10,6 5,5 20 11 25 13 S 0 0,0
23.05.2018 00:00:00 9,9 6,5 8,6 10,2 10,7 5,5 13 7 16 9 SSE 0 0,0
22.05.2018 23:00:00 10,3 5,1 8,2 10,8 10,8 5,5 17 9 30 16 SE 0 0,0
22.05.2018 22:00:00 9,9 6,8 9,1 11,7 10,8 5,5 28 15 37 20 E 0 0,0
22.05.2018 21:00:00 11,3 4,2 9,8 13,2 10,6 5,5 25 13 30 16 NE 12 0,0
22.05.2018 20:00:00 11,3 6,2 12,0 14,7 10,4 5,5 27 14 34 18 NNE 49 0,0
22.05.2018 19:00:00 12,1 4,7 13,1 16,1 10,1 5,5 13 7 23 12 N 58 0,0
22.05.2018 18:00:00 11,7 5,5 14,9 16,7 9,8 5,5 18 10 24 13 N 59 0,0
22.05.2018 17:00:00 12,6 7,4 15,0 16,0 9,6 5,5 15 8 31 17 NNW 56 0,0
22.05.2018 16:00:00 11,9 5,7 14,5 14,6 9,5 5,5 18 10 38 21 NE 53 0,0
22.05.2018 15:00:00 11,6 3,0 11,7 11,5 9,4 5,4 18 10 27 15 E 0 1,2
22.05.2018 14:00:00 10,4 4,1 8,6 11,6 9,2 5,4 12 6 30 16 WSW 0 2,6
22.05.2018 13:00:00 9,3 5,5 9,0 13,1 9,0 5,4 14 8 29 16 S 7 0,0
22.05.2018 12:00:00 11,0 8,8 13,7 13,1 8,7 5,4 11 6 16 9 N 3 0,1
22.05.2018 11:00:00 11,8 5,9 12,5 13,6 8,6 5,4 13 7 24 13 N 50 0,0
22.05.2018 10:00:00 11,8 5,9 15,0 11,4 8,6 5,4 16 8 23 12 NNE 60 0,0
22.05.2018 09:00:00 11,2 7,4 12,4 9,4 8,6 5,4 13 7 20 11 N 60 0,0
22.05.2018 08:00:00 11,0 6,6 10,7 7,7 8,8 5,4 10 5 16 9 N 60 0,0
22.05.2018 07:00:00 11,3 5,8 8,3 6,8 9,0 5,4 6 3 11 6 NNE 43 0,0
22.05.2018 06:00:00 10,4 5,6 5,5 6,6 9,2 5,4 7 4 9 5 N 0 0,0
22.05.2018 05:00:00 11,6 3,4 6,7 7,1 9,4 5,4 8 4 16 9 S 0 0,0
22.05.2018 04:00:00 11,3 5,5 6,8 7,6 9,6 5,4 13 7 25 14 SSE 0 0,0
22.05.2018 03:00:00 10,8 4,8 6,8 8,0 9,8 5,4 24 13 27 15 ESE 0 0,0
22.05.2018 02:00:00 10,8 5,4 7,2 8,4 9,9 5,4 26 14 28 15 ESE 0 0,0
22.05.2018 01:00:00 10,5 6,5 7,0 8,8 10,1 5,4 25 13 28 15 ESE 0 0,0
22.05.2018 00:00:00 10,0 7,4 7,0 9,4 10,3 5,4 20 11 23 13 ESE 0 0,0
21.05.2018 23:00:00 10,3 7,5 7,4 10,2 10,4 5,4 20 11 38 21 E 0 0,0
21.05.2018 22:00:00 10,7 6,5 8,4 11,0 10,4 5,4 31 17 36 19 E 0 0,0
21.05.2018 21:00:00 10,3 6,4 8,4 12,3 10,4 5,4 22 12 34 18 NE 5 0,0
21.05.2018 20:00:00 10,6 5,3 10,1 13,6 10,2 5,4 22 12 34 18 N 36 0,0
21.05.2018 19:00:00 11,1 4,3 12,2 15,0 10,0 5,4 24 13 39 21 NNE 42 0,0
21.05.2018 18:00:00 11,7 6,1 12,4 15,2 9,8 5,4 11 6 17 9 N 2 0,0
21.05.2018 17:00:00 12,3 5,0 13,4 15,9 9,6 5,4 11 6 21 11 N 51 0,0
21.05.2018 16:00:00 11,5 3,5 14,7 13,1 9,5 5,4 11 6 13 7 NNE 8 0,2
21.05.2018 15:00:00 10,0 4,7 9,4 13,3 9,3 5,4 8 4 13 7 NNW 0 0,3
21.05.2018 14:00:00 10,1 3,5 9,9 14,0 8,9 5,4 14 7 20 11 E 0 0,6
21.05.2018 13:00:00 10,6 4,5 10,5 15,0 8,5 5,4 15 8 22 12 ESE 1 0,2
21.05.2018 12:00:00 10,8 8,8 14,2 16,1 8,2 5,4 9 5 22 12 N 34 0,0
21.05.2018 11:00:00 11,8 5,5 16,8 14,3 8,0 5,4 7 4 16 8 SSW 60 0,0
21.05.2018 10:00:00 11,2 5,2 14,5 11,6 7,9 5,4 8 4 14 8 S 60 0,0
21.05.2018 09:00:00 10,9 4,4 11,7 9,3 8,0 5,4 6 4 20 11 SW 54 0,0
21.05.2018 08:00:00 10,0 2,7 10,8 7,3 8,1 5,4 13 7 21 11 SSW 60 0,0
21.05.2018 07:00:00 9,8 2,7 7,9 6,4 8,2 5,4 17 9 22 12 S 32 0,0
21.05.2018 06:00:00 8,8 3,7 6,5 6,3 8,4 5,3 19 10 28 15 S 0 0,0
21.05.2018 05:00:00 8,9 3,5 6,1 6,7 8,5 5,3 23 12 32 18 SSE 0 0,0
21.05.2018 04:00:00 9,0 3,8 5,3 7,2 8,7 5,3 22 12 34 19 SSE 0 0,0
21.05.2018 03:00:00 8,5 5,0 5,7 7,8 8,8 5,3 34 18 41 22 ESE 0 0,0
21.05.2018 02:00:00 7,2 6,8 6,5 8,2 8,9 5,3 37 20 44 24 ESE 0 0,1
21.05.2018 01:00:00 7,6 7,4 7,5 8,5 9,0 5,3 39 21 49 26 E 0 0,0
21.05.2018 00:00:00 7,3 7,1 7,0 9,0 9,0 5,3 40 21 54 29 E 0 0,1
20.05.2018 23:00:00 7,7 7,5 7,7 9,4 9,1 5,3 40 22 53 28 E 0 0,0

tt = Température de l'air
td = dewpoint
tt 5cm = Température de l'air 5cm
tt -5cm = Température de l'air -5cm
tt -20cm = Température de l'air -20cm
tt -100cm = Température de l'air -100cm
ff = Vitesse du vent
fx = gusts
dd = Direction du vent
sd = Ensoleillement
rr = Quantités de précipitations

stations d'obs. à proximité